EPSC/SZZ METAR and TAF weather

Enter ICAO airport designator
Station Type Date Time Source
EPSC METAR 2020/11/28 20:00 UTC NOAA

EPSC 282000Z 29003KT 6000 FEW024 BKN032 M00/M00 Q1026


Station Type Date Time Source
EPSC Decoded METAR 2020/11/28 20:00 UTC NOAA

Szczecin, Poland (EPSC) 53-24N 014-37E 3M
Nov 28, 2020 - 03:00 PM EST / 2020.11.28 2000 UTC
Wind: from the WNW (290 degrees) at 3 MPH (3 KT):0
Visibility: 3 mile(s):0
Sky conditions: mostly cloudy
Temperature: 32 F (0 C)
Dew Point: 32 F (0 C)
Relative Humidity: 100%
Pressure (altimeter): 30.30 in. Hg (1026 hPa)
ob: EPSC 282000Z 29003KT 6000 FEW024 BKN032 M00/M00 Q1026
cycle: 20

Station Type Date Time Source
EPSC TAF 2020/11/28 18:33 UTC NOAA

TAF EPSC 281730Z 2818/2918 VRB02KT 7000 SCT045
TEMPO 2818/2908 1600 BR BKN003 BKN006 PROB40
TEMPO 2818/2907 0800 FG OVC001 PROB30 2818/2906 0300 FZFG
BECMG 2903/2906 35010KT
BECMG 2907/2910 -RA BKN012 BKN020
TEMPO 2907/2918 4000 SHRA SCT004 BKN007CB

Example: see airport list